Terminal Aerodrome Forecast
Issued by NWS

Home | Current Version | Previous Version | Text Only | Print | Product List | Glossary On
Versions: 1 2 3 4 5 6 7 8 9 10 11 12 13 14 15 16 17 18 19 20 21 22 23 24 25 26 27
000
FTUS43 KICT 230520
TAFHUT
TAF
KHUT 230520Z 2306/2406 13009KT 4SM BR BKN006 OVC020
      TEMPO 2306/2310 3SM -DZ BR BKN004 OVC008
     FM231000 13011KT 3SM -DZ BR BKN004
     FM231500 15014KT 5SM -SHRA VCTS SCT006 OVC010CB
     FM240300 14010KT 4SM BR BKN006=

USA.gov is the U.S. government's official web portal to all federal, state and local government web resources and services.